Time;durP1;ratioP1;P1;durP2;ratioP2;P2;SDS_P1;SDS_P2;PMS_P1;PMS_P2;Temp;Humidity;BMP_temperature;BMP_pressure;BME280_temperature;BME280_humidity;BME280_pressure;Samples;Min_cycle;Max_cycle;Signal;HPM_P1;HPM_P2
2023/12/27 00:00:29;;;;;;;8.30;4.63;;;;;;;4.62;100.00;102090.34;5130765;27;20024;-35
2023/12/27 00:02:54;;;;;;;5.63;3.60;;;;;;;4.65;100.00;102106.97;5130649;27;20543;-35
2023/12/27 00:05:20;;;;;;;6.82;3.83;;;;;;;4.62;100.00;102109.94;5130957;27;20114;-36
2023/12/27 00:07:45;;;;;;;7.77;4.17;;;;;;;4.57;100.00;102098.03;5122094;27;20027;-36
2023/12/27 00:10:10;;;;;;;11.00;4.90;;;;;;;4.47;100.00;102094.66;5117436;28;20028;-36
2023/12/27 00:12:36;;;;;;;9.02;5.00;;;;;;;4.58;100.00;102089.00;5116845;28;20027;-35
2023/12/27 00:15:02;;;;;;;8.50;4.53;;;;;;;4.55;100.00;102078.63;5117051;28;20032;-35
2023/12/27 00:17:27;;;;;;;6.75;4.43;;;;;;;4.64;100.00;102093.72;5117617;28;20386;-36
2023/12/27 00:19:52;;;;;;;8.27;4.47;;;;;;;4.50;100.00;102073.75;5116373;28;20460;-35
2023/12/27 00:22:18;;;;;;;7.17;4.10;;;;;;;4.56;100.00;102086.47;5116720;28;20034;-36
2023/12/27 00:24:43;;;;;;;9.27;4.87;;;;;;;4.49;100.00;102093.50;5116652;28;20049;-35
2023/12/27 00:27:08;;;;;;;9.27;4.20;;;;;;;4.41;100.00;102092.63;5116645;28;20027;-35
2023/12/27 00:29:34;;;;;;;9.57;4.47;;;;;;;4.39;100.00;102095.44;5116263;28;20157;-35
2023/12/27 00:31:59;;;;;;;6.43;4.03;;;;;;;4.43;100.00;102104.00;5116790;28;20073;-36
2023/12/27 00:34:24;;;;;;;12.47;5.27;;;;;;;4.32;100.00;102105.94;5116469;28;20042;-36
2023/12/27 00:36:50;;;;;;;9.13;4.20;;;;;;;4.27;100.00;102102.91;5116708;28;20058;-35
2023/12/27 00:39:16;;;;;;;6.97;3.90;;;;;;;4.37;100.00;102100.97;5116661;28;20032;-36
2023/12/27 00:41:42;;;;;;;7.53;3.53;;;;;;;4.41;100.00;102100.66;5116299;27;20015;-35
2023/12/27 00:44:07;;;;;;;9.87;4.73;;;;;;;4.36;100.00;102096.59;5116278;28;20077;-35
2023/12/27 00:46:32;;;;;;;8.63;4.13;;;;;;;4.43;100.00;102095.97;5116287;27;20123;-35
2023/12/27 00:48:58;;;;;;;9.73;4.93;;;;;;;4.48;100.00;102089.13;5116425;28;20034;-35
2023/12/27 00:51:23;;;;;;;9.47;5.53;;;;;;;4.42;100.00;102078.22;5116488;28;20023;-35
2023/12/27 00:53:49;;;;;;;8.03;5.47;;;;;;;4.45;100.00;102088.63;5116087;28;20065;-36
2023/12/27 00:56:15;;;;;;;9.63;4.53;;;;;;;4.47;100.00;102092.81;5116921;28;20051;-36
2023/12/27 00:58:40;;;;;;;11.45;5.25;;;;;;;4.49;100.00;102084.59;5116540;28;20031;-36
2023/12/27 01:01:06;;;;;;;13.07;5.15;;;;;;;4.50;100.00;102091.66;5115961;28;20444;-35
2023/12/27 01:03:31;;;;;;;6.80;4.10;;;;;;;4.45;100.00;102069.88;5115876;28;20072;-35
2023/12/27 01:05:57;;;;;;;11.97;4.97;;;;;;;4.42;100.00;102079.06;5115970;28;20365;-35
2023/12/27 01:08:22;;;;;;;7.37;4.43;;;;;;;4.44;100.00;102085.09;5115572;28;20306;-36
2023/12/27 01:10:47;;;;;;;11.23;3.90;;;;;;;4.48;100.00;102088.28;5116160;28;20487;-35
2023/12/27 01:13:13;;;;;;;10.18;4.57;;;;;;;4.34;100.00;102079.00;5115899;28;20460;-35
2023/12/27 01:15:38;;;;;;;7.70;3.80;;;;;;;4.39;100.00;102082.91;5116173;28;20118;-35
2023/12/27 01:18:03;;;;;;;7.10;4.63;;;;;;;4.41;100.00;102081.91;5115279;28;20028;-35
2023/12/27 01:20:29;;;;;;;8.33;4.77;;;;;;;4.39;100.00;102082.03;5114633;28;20024;-35
2023/12/27 01:22:54;;;;;;;10.97;4.63;;;;;;;4.36;100.00;102074.34;5116087;28;20027;-36
2023/12/27 01:25:19;;;;;;;6.90;4.63;;;;;;;4.20;100.00;102048.34;5115728;28;20172;-35
2023/12/27 01:27:46;;;;;;;7.87;4.83;;;;;;;4.33;100.00;102071.97;5115391;28;20088;-35
2023/12/27 01:30:12;;;;;;;8.65;4.97;;;;;;;4.28;100.00;102063.59;5115348;28;20051;-35
2023/12/27 01:32:37;;;;;;;11.07;5.57;;;;;;;4.24;100.00;102060.38;5115350;28;20044;-35
2023/12/27 01:35:03;;;;;;;9.40;5.07;;;;;;;4.21;100.00;102066.06;5114891;28;20080;-35
2023/12/27 01:37:28;;;;;;;11.82;4.70;;;;;;;4.24;100.00;102076.44;5114969;28;20384;-35
2023/12/27 01:39:54;;;;;;;11.30;5.93;;;;;;;4.20;100.00;102071.56;5114831;28;20028;-35
2023/12/27 01:42:19;;;;;;;15.73;5.40;;;;;;;4.16;100.00;102068.38;5115236;28;20452;-35
2023/12/27 01:44:44;;;;;;;10.63;4.50;;;;;;;4.25;100.00;102070.13;5115034;28;20425;-35
2023/12/27 01:47:13;;;;;;;12.77;4.70;;;;;;;4.26;100.00;102071.78;5115350;28;20479;-36
2023/12/27 01:49:38;;;;;;;8.65;4.07;;;;;;;4.27;100.00;102076.13;5115195;28;20065;-35
2023/12/27 01:52:05;;;;;;;13.38;5.75;;;;;;;4.13;100.00;102063.34;5115804;27;20402;-35
2023/12/27 01:54:30;;;;;;;;;;;;;;;4.28;100.00;102074.28;5115588;28;20024;-35
2023/12/27 01:56:55;;;;;;;8.65;4.38;;;;;;;4.17;100.00;102075.41;5115246;28;20447;-35
2023/12/27 01:59:22;;;;;;;6.80;4.10;;;;;;;4.21;100.00;102073.28;5115581;28;20080;-35
2023/12/27 02:01:47;;;;;;;8.45;4.32;;;;;;;4.14;100.00;102070.38;5115290;28;20042;-36
2023/12/27 02:04:13;;;;;;;10.80;5.18;;;;;;;4.17;100.00;102070.06;5114700;28;20019;-35
2023/12/27 02:06:38;;;;;;;10.00;4.63;;;;;;;4.19;100.00;102075.25;5114984;28;20468;-35
2023/12/27 02:09:04;;;;;;;11.02;4.85;;;;;;;4.25;100.00;102063.94;5114599;28;20027;-36
2023/12/27 02:11:29;;;;;;;10.30;4.90;;;;;;;4.22;100.00;102061.56;5115152;28;20448;-35
2023/12/27 02:13:55;;;;;;;7.33;4.23;;;;;;;4.27;100.00;102065.44;5114533;28;20356;-36
2023/12/27 02:16:21;;;;;;;8.97;4.87;;;;;;;4.21;100.00;102066.06;5114759;28;20349;-35
2023/12/27 02:18:48;;;;;;;12.15;5.60;;;;;;;4.18;100.00;102061.03;5114705;28;20034;-35
2023/12/27 02:21:13;;;;;;;9.82;5.00;;;;;;;4.08;100.00;102044.25;5114712;28;20455;-36
2023/12/27 02:23:42;;;;;;;9.98;4.88;;;;;;;4.14;100.00;102054.31;5115163;28;20027;-36
2023/12/27 02:26:09;;;;;;;14.65;5.53;;;;;;;4.22;100.00;102057.03;5114694;28;20039;-35
2023/12/27 02:28:34;;;;;;;11.20;5.07;;;;;;;4.28;100.00;102059.06;5114249;28;20414;-35
2023/12/27 02:31:00;;;;;;;11.27;5.23;;;;;;;4.11;100.00;102043.94;5114068;28;20038;-35
2023/12/27 02:33:25;;;;;;;11.43;4.87;;;;;;;4.13;100.00;102039.25;5114018;28;20365;-35
2023/12/27 02:35:50;;;;;;;11.73;5.77;;;;;;;4.27;100.00;102053.88;5114706;28;20027;-35
2023/12/27 02:38:16;;;;;;;11.40;5.23;;;;;;;4.25;100.00;102051.38;5114442;27;20474;-35
2023/12/27 02:40:41;;;;;;;11.10;5.33;;;;;;;4.19;100.00;102030.56;5114246;28;20023;-36
2023/12/27 02:43:07;;;;;;;11.30;5.37;;;;;;;4.22;100.00;102029.41;5114890;28;20031;-35
2023/12/27 02:45:32;;;;;;;10.13;4.80;;;;;;;4.34;100.00;102039.69;5114399;28;20028;-35
2023/12/27 02:47:57;;;;;;;11.57;4.50;;;;;;;4.29;100.00;102049.19;5113819;28;20164;-35
2023/12/27 02:50:22;;;;;;;10.80;4.90;;;;;;;4.20;100.00;102026.91;5113827;28;20031;-36
2023/12/27 02:52:48;;;;;;;9.03;5.13;;;;;;;4.18;100.00;102022.72;5113992;28;20032;-35
2023/12/27 02:55:13;;;;;;;15.73;4.87;;;;;;;4.26;100.00;102020.06;5113737;28;20104;-35
2023/12/27 02:57:39;;;;;;;10.93;4.93;;;;;;;4.23;100.00;102018.53;5113997;28;20023;-35
2023/12/27 03:00:05;;;;;;;11.47;4.93;;;;;;;4.22;100.00;102016.88;5113644;28;20027;-36
2023/12/27 03:02:30;;;;;;;13.75;5.35;;;;;;;4.26;100.00;102002.16;5113974;28;20038;-35
2023/12/27 03:04:55;;;;;;;8.90;4.70;;;;;;;4.18;100.00;101998.59;5113852;28;20103;-35
2023/12/27 03:07:21;;;;;;;9.43;4.70;;;;;;;4.22;100.00;102000.81;5114166;28;20375;-35
2023/12/27 03:09:46;;;;;;;11.43;4.60;;;;;;;4.25;100.00;101997.81;5113874;28;20451;-35
2023/12/27 03:12:12;;;;;;;14.80;5.07;;;;;;;4.30;100.00;102011.56;5114111;28;20026;-35
2023/12/27 03:14:37;;;;;;;14.30;4.72;;;;;;;4.29;100.00;102014.38;5114021;28;20100;-35
2023/12/27 03:17:03;;;;;;;14.67;6.33;;;;;;;4.22;100.00;102003.47;5113781;28;20421;-35
2023/12/27 03:19:28;;;;;;;12.57;4.80;;;;;;;4.25;100.00;101992.47;5113347;28;20023;-35
2023/12/27 03:21:54;;;;;;;10.13;4.93;;;;;;;4.29;100.00;101987.59;5114281;28;20028;-35
2023/12/27 03:24:19;;;;;;;12.87;4.77;;;;;;;4.40;100.00;101990.00;5113700;28;20098;-36
2023/12/27 03:26:44;;;;;;;15.87;4.67;;;;;;;4.29;100.00;101964.34;5113313;28;20020;-35
2023/12/27 03:29:10;;;;;;;11.43;5.10;;;;;;;4.42;100.00;101979.97;5113852;28;20042;-35
2023/12/27 03:31:35;;;;;;;10.10;4.93;;;;;;;4.39;100.00;101970.41;5114438;28;20364;-35
2023/12/27 03:34:00;;;;;;;9.93;5.07;;;;;;;4.38;100.00;101958.00;5113211;28;20387;-36
2023/12/27 03:36:26;;;;;;;13.23;5.82;;;;;;;4.45;100.00;101960.06;5113766;28;20468;-35
2023/12/27 03:38:51;;;;;;;11.25;5.18;;;;;;;4.34;100.00;101935.25;5113684;28;20023;-35
2023/12/27 03:41:17;;;;;;;11.07;5.23;;;;;;;4.48;100.00;101955.19;5113623;28;20080;-35
2023/12/27 03:43:42;;;;;;;13.83;5.60;;;;;;;4.42;100.00;101934.44;5117138;28;20110;-35
2023/12/27 03:46:07;;;;;;;12.43;5.10;;;;;;;4.52;100.00;101943.16;5117762;28;20028;-35
2023/12/27 03:48:33;;;;;;;9.15;5.15;;;;;;;4.48;100.00;101933.75;5117595;28;20054;-35
2023/12/27 03:50:59;;;;;;;8.70;4.90;;;;;;;4.51;100.00;101932.59;5117005;28;20028;-35
2023/12/27 03:53:24;;;;;;;11.63;5.10;;;;;;;4.48;100.00;101925.72;5117227;28;20039;-35
2023/12/27 03:55:49;;;;;;;12.13;5.67;;;;;;;4.46;100.00;101916.19;5117787;28;20109;-35
2023/12/27 03:58:15;;;;;;;11.70;5.20;;;;;;;4.36;100.00;101895.75;5116847;28;20032;-35
2023/12/27 04:00:40;;;;;;;13.23;5.73;;;;;;;4.42;100.00;101901.44;5117130;28;20073;-36
2023/12/27 04:03:05;;;;;;;12.70;5.03;;;;;;;4.46;100.00;101898.28;5117128;28;20028;-35
2023/12/27 04:05:31;;;;;;;10.97;5.90;;;;;;;4.47;100.00;101904.47;5117272;27;20084;-35
2023/12/27 04:07:56;;;;;;;15.27;6.17;;;;;;;4.51;100.00;101901.28;5116942;28;20106;-35
2023/12/27 04:10:21;;;;;;;18.70;6.40;;;;;;;4.51;100.00;101905.81;5117212;28;20024;-35
2023/12/27 04:12:47;;;;;;;11.07;5.20;;;;;;;4.44;100.00;101899.44;5117269;27;20028;-35
2023/12/27 04:15:12;;;;;;;9.33;5.40;;;;;;;4.51;100.00;101909.34;5116483;28;20115;-35
2023/12/27 04:17:39;;;;;;;11.93;4.93;;;;;;;4.52;100.00;101894.94;5116811;28;20024;-35
2023/12/27 04:20:05;;;;;;;11.45;5.55;;;;;;;4.45;100.00;101885.06;5116955;28;20024;-35
2023/12/27 04:22:30;;;;;;;10.68;4.88;;;;;;;4.54;100.00;101892.06;5117272;28;20108;-35
2023/12/27 04:24:56;;;;;;;12.27;5.27;;;;;;;4.53;100.00;101888.56;5117022;28;20180;-35
2023/12/27 04:27:21;;;;;;;9.17;5.37;;;;;;;4.55;100.00;101881.22;5116608;28;20032;-36
2023/12/27 04:29:46;;;;;;;13.23;5.40;;;;;;;4.59;100.00;101881.72;5116388;28;20023;-36
2023/12/27 04:32:12;;;;;;;15.13;6.37;;;;;;;4.59;100.00;101887.09;5116536;28;20060;-35
2023/12/27 04:34:37;;;;;;;13.73;5.73;;;;;;;4.56;100.00;101882.88;5116235;28;20081;-36
2023/12/27 04:37:02;;;;;;;10.23;5.10;;;;;;;4.58;100.00;101885.38;5117183;28;20020;-35
2023/12/27 04:39:28;;;;;;;11.05;5.93;;;;;;;4.51;100.00;101871.84;5116389;28;20023;-35
2023/12/27 04:41:53;;;;;;;10.67;5.07;;;;;;;4.59;100.00;101879.06;5117144;28;20036;-35
2023/12/27 04:44:18;;;;;;;11.50;5.73;;;;;;;4.64;100.00;101887.44;5116364;28;20028;-36
2023/12/27 04:46:43;;;;;;;9.77;5.13;;;;;;;4.65;100.00;101868.50;5116763;28;20038;-35
2023/12/27 04:49:09;;;;;;;13.67;5.73;;;;;;;4.63;100.00;101866.97;5115948;28;20023;-36
2023/12/27 04:51:35;;;;;;;11.20;5.88;;;;;;;4.65;100.00;101868.50;5116417;28;20023;-36
2023/12/27 04:54:04;;;;;;;10.10;5.00;;;;;;;4.67;100.00;101865.63;5115831;28;20463;-36
2023/12/27 04:56:29;;;;;;;16.33;6.97;;;;;;;4.69;100.00;101877.03;5116479;27;20126;-35
2023/12/27 04:58:54;;;;;;;7.73;4.67;;;;;;;4.71;100.00;101875.03;5115772;28;20495;-35
2023/12/27 05:01:20;;;;;;;12.30;5.43;;;;;;;4.72;100.00;101865.97;5116301;28;20391;-35
2023/12/27 05:03:45;;;;;;;11.95;4.90;;;;;;;4.67;100.00;101862.97;5115873;28;20452;-35
2023/12/27 05:06:11;;;;;;;9.07;5.03;;;;;;;4.73;100.00;101861.44;5116321;28;20039;-36
2023/12/27 05:08:40;;;;;;;;;;;;;;;4.78;100.00;101853.75;5116281;28;20023;-35
2023/12/27 05:11:12;;;;;;;20.00;6.20;;;;;;;4.76;100.00;101843.19;5115424;28;19912;-36
2023/12/27 05:13:38;;;;;;;12.88;5.63;;;;;;;4.75;100.00;101843.38;5115671;28;20027;-36
2023/12/27 05:16:11;;;;;;;11.63;5.18;;;;;;;4.74;100.00;101831.00;5116104;28;20379;-36
2023/12/27 05:18:40;;;;;;;7.93;4.70;;;;;;;4.74;100.00;101837.19;5115810;28;20081;-36
2023/12/27 05:21:10;;;;;;;12.80;5.40;;;;;;;4.69;100.00;101817.25;5115578;28;20023;-35
2023/12/27 05:23:35;;;;;;;11.85;4.95;;;;;;;4.70;100.00;101816.25;5115405;28;20023;-35
2023/12/27 05:26:02;;;;;;;11.70;5.53;;;;;;;4.74;100.00;101829.16;5115960;28;20023;-35
2023/12/27 05:28:28;;;;;;;13.75;5.15;;;;;;;4.78;100.00;101824.25;5115143;28;20114;-35
2023/12/27 05:30:53;;;;;;;14.95;5.18;;;;;;;4.79;100.00;101824.13;5115942;28;20062;-35
2023/12/27 05:33:19;;;;;;;15.43;5.50;;;;;;;4.79;100.00;101817.91;5115259;28;20027;-35
2023/12/27 05:35:44;;;;;;;10.30;4.70;;;;;;;4.75;100.00;101814.75;5115195;28;20496;-36
2023/12/27 05:38:09;;;;;;;12.30;4.67;;;;;;;4.83;100.00;101819.22;5114900;28;20305;-35
2023/12/27 05:40:35;;;;;;;12.13;4.90;;;;;;;4.84;100.00;101816.41;5115286;28;20069;-35
2023/12/27 05:43:00;;;;;;;12.97;4.90;;;;;;;4.79;100.00;101802.69;5115945;28;20051;-35
2023/12/27 05:45:25;;;;;;;12.23;5.57;;;;;;;4.80;100.00;101815.06;5115094;28;20039;-35
2023/12/27 05:47:51;;;;;;;14.90;5.07;;;;;;;4.83;100.00;101814.75;5115587;28;20027;-35
2023/12/27 05:50:17;;;;;;;13.10;4.75;;;;;;;4.83;100.00;101808.50;5114975;28;20031;-35
2023/12/27 05:52:42;;;;;;;9.83;4.83;;;;;;;4.77;100.00;101799.31;5115256;28;20348;-35
2023/12/27 05:55:08;;;;;;;10.40;4.43;;;;;;;4.82;100.00;101799.63;5114680;28;20098;-35
2023/12/27 05:57:33;;;;;;;13.00;4.97;;;;;;;4.82;100.00;101786.25;5115414;28;20024;-35
2023/12/27 05:59:58;;;;;;;14.05;4.47;;;;;;;4.66;100.00;101762.16;5114809;28;20027;-35
2023/12/27 06:02:24;;;;;;;12.33;5.97;;;;;;;4.82;100.00;101791.59;5115073;28;20084;-35
2023/12/27 06:04:49;;;;;;;10.17;4.57;;;;;;;4.85;100.00;101788.59;5114237;28;20305;-35
2023/12/27 06:07:14;;;;;;;12.97;5.07;;;;;;;4.86;100.00;101776.84;5115494;28;20027;-35
2023/12/27 06:09:40;;;;;;;12.23;5.20;;;;;;;4.87;100.00;101788.41;5114408;28;20049;-35
2023/12/27 06:12:09;;;;;;;9.27;4.60;;;;;;;4.86;100.00;101779.53;5114571;28;20028;-35
2023/12/27 06:14:35;;;;;;;13.18;5.10;;;;;;;4.85;100.00;101769.84;5115276;28;20030;-35
2023/12/27 06:17:01;;;;;;;;;;;;;;;4.90;100.00;101761.28;5115282;28;20027;-35
2023/12/27 06:19:27;;;;;;;10.02;5.20;;;;;;;4.83;100.00;101747.75;5114390;28;19912;-35
2023/12/27 06:21:52;;;;;;;8.05;3.97;;;;;;;4.86;100.00;101744.69;5115288;28;20047;-35
2023/12/27 06:24:18;;;;;;;12.67;4.30;;;;;;;4.90;100.00;101747.88;5114161;28;20034;-35
2023/12/27 06:26:43;;;;;;;11.57;4.03;;;;;;;4.93;100.00;101757.41;5114090;28;20051;-35
2023/12/27 06:29:09;;;;;;;10.50;4.47;;;;;;;4.95;100.00;101747.38;5114314;28;20282;-35
2023/12/27 06:31:34;;;;;;;10.13;4.30;;;;;;;4.96;100.00;101743.66;5114230;28;20024;-35
2023/12/27 06:34:00;;;;;;;12.13;4.07;;;;;;;4.95;100.00;101739.31;5114710;28;20078;-35
2023/12/27 06:36:26;;;;;;;12.80;4.50;;;;;;;4.94;100.00;101735.81;5114467;28;20383;-35
2023/12/27 06:38:51;;;;;;;10.67;4.37;;;;;;;4.94;100.00;101718.91;5113885;28;20028;-35
2023/12/27 06:41:16;;;;;;;9.63;4.23;;;;;;;4.88;100.00;101701.63;5114413;28;20295;-35
2023/12/27 06:43:43;;;;;;;11.50;4.70;;;;;;;4.90;100.00;101711.19;5113911;28;20046;-36
2023/12/27 06:46:09;;;;;;;10.05;4.53;;;;;;;4.88;100.00;101699.81;5113833;28;20035;-35
2023/12/27 06:48:34;;;;;;;12.93;4.85;;;;;;;4.98;100.00;101701.44;5114107;28;20027;-35
2023/12/27 06:51:02;;;;;;;11.50;4.50;;;;;;;4.95;100.00;101697.28;5114196;28;20031;-35
2023/12/27 06:53:28;;;;;;;7.85;4.25;;;;;;;4.98;100.00;101696.06;5113245;28;20028;-35
2023/12/27 06:55:53;;;;;;;12.07;5.13;;;;;;;5.00;100.00;101699.44;5114337;28;20062;-35
2023/12/27 06:58:19;;;;;;;8.30;4.70;;;;;;;4.93;100.00;101693.06;5113592;28;20356;-35
2023/12/27 07:00:44;;;;;;;12.47;4.83;;;;;;;5.00;100.00;101688.72;5113614;28;20460;-35
2023/12/27 07:03:09;;;;;;;8.93;4.90;;;;;;;5.03;100.00;101691.88;5113444;28;20030;-36
2023/12/27 07:05:36;;;;;;;8.60;4.80;;;;;;;5.04;100.00;101693.56;5113814;28;20046;-35
2023/12/27 07:08:02;;;;;;;11.68;4.72;;;;;;;5.06;100.00;101690.69;5113651;28;20032;-35
2023/12/27 07:10:27;;;;;;;6.93;4.30;;;;;;;5.09;100.00;101685.00;5113128;28;20072;-35
2023/12/27 07:12:52;;;;;;;8.43;5.13;;;;;;;5.07;100.00;101687.00;5113879;28;20027;-35
2023/12/27 07:15:18;;;;;;;11.67;4.53;;;;;;;5.12;100.00;101684.63;5113380;28;20030;-35
2023/12/27 07:17:43;;;;;;;8.98;5.00;;;;;;;5.13;100.00;101686.31;5115275;28;20297;-36
2023/12/27 07:20:10;;;;;;;8.47;5.10;;;;;;;5.13;100.00;101681.78;5117484;28;20023;-35
2023/12/27 07:22:35;;;;;;;7.75;4.93;;;;;;;5.18;100.00;101680.44;5117732;28;20173;-35
2023/12/27 07:25:01;;;;;;;9.90;5.85;;;;;;;5.18;100.00;101686.63;5117414;28;20464;-35
2023/12/27 07:27:26;;;;;;;7.77;4.73;;;;;;;5.16;100.00;101664.50;5117616;28;20391;-35
2023/12/27 07:29:51;;;;;;;10.27;4.87;;;;;;;5.23;100.00;101681.56;5117964;28;20023;-35
2023/12/27 07:32:17;;;;;;;7.27;4.93;;;;;;;5.23;100.00;101670.00;5118528;28;20030;-35
2023/12/27 07:34:42;;;;;;;9.53;5.00;;;;;;;5.30;100.00;101674.47;5117535;28;20310;-36
2023/12/27 07:37:08;;;;;;;8.97;6.23;;;;;;;5.33;100.00;101676.81;5117202;27;20028;-35
2023/12/27 07:39:34;;;;;;;6.85;5.30;;;;;;;5.34;100.00;101678.47;5117529;28;20034;-35
2023/12/27 07:41:59;;;;;;;6.53;4.57;;;;;;;5.39;100.00;101668.06;5117542;28;20070;-35
2023/12/27 07:44:26;;;;;;;6.85;5.32;;;;;;;5.33;100.00;101660.72;5117505;28;20085;-35
2023/12/27 07:46:52;;;;;;;5.82;5.00;;;;;;;5.45;100.00;101669.19;5117734;28;20085;-35
2023/12/27 07:49:18;;;;;;;7.47;5.57;;;;;;;5.48;100.00;101676.06;5117414;28;20031;-35
2023/12/27 07:51:44;;;;;;;6.85;5.10;;;;;;;5.43;100.00;101664.03;5117921;28;20039;-35
2023/12/27 07:54:10;;;;;;;6.60;5.20;;;;;;;5.54;100.00;101668.13;5117853;28;20093;-35
2023/12/27 07:56:36;;;;;;;10.48;6.47;;;;;;;5.57;100.00;101667.78;5118237;28;20051;-35
2023/12/27 07:59:03;;;;;;;6.10;5.47;;;;;;;5.60;100.00;101669.28;5117127;28;20022;-36
2023/12/27 08:01:31;;;;;;;8.23;5.95;;;;;;;5.66;100.00;101663.19;5117433;28;20032;-35
2023/12/27 08:03:57;;;;;;;7.90;7.10;;;;;;;5.71;100.00;101665.34;5117601;28;20027;-36
2023/12/27 08:06:22;;;;;;;7.07;6.20;;;;;;;5.76;100.00;101660.25;5116825;28;20402;-35
2023/12/27 08:08:47;;;;;;;8.02;7.20;;;;;;;5.67;100.00;101649.59;5117283;28;20028;-36
2023/12/27 08:11:13;;;;;;;7.50;6.80;;;;;;;5.72;100.00;101651.75;5117012;28;20039;-35
2023/12/27 08:13:38;;;;;;;10.33;6.20;;;;;;;5.81;100.00;101657.91;5116941;28;20028;-36
2023/12/27 08:16:04;;;;;;;9.00;7.73;;;;;;;5.79;100.00;101639.28;5117109;28;20031;-36
2023/12/27 08:18:29;;;;;;;;;;;;;;;5.87;100.00;101647.28;5117514;28;20160;-35
2023/12/27 08:20:55;;;;;;;7.63;6.73;;;;;;;5.73;100.00;101629.25;5117243;28;19968;-35
2023/12/27 08:23:21;;;;;;;7.88;6.97;;;;;;;5.88;100.00;101650.78;5116372;27;20395;-35
2023/12/27 08:25:46;;;;;;;8.73;7.85;;;;;;;5.92;100.00;101638.72;5116705;28;20023;-35
2023/12/27 08:28:14;;;;;;;9.52;7.72;;;;;;;5.93;100.00;101635.84;5115835;28;20020;-35
2023/12/27 08:30:39;;;;;;;8.48;7.53;;;;;;;5.89;100.00;101623.75;5116822;28;20372;-35
2023/12/27 08:33:07;;;;;;;9.93;8.63;;;;;;;5.98;100.00;101618.34;5116543;28;20035;-36
2023/12/27 08:35:36;;;;;;;10.50;9.48;;;;;;;5.99;100.00;101611.97;5116398;28;20023;-35
2023/12/27 08:38:02;;;;;;;9.10;8.15;;;;;;;5.98;100.00;101597.69;5116351;28;20028;-36
2023/12/27 08:40:27;;;;;;;;;;;;;;;6.08;100.00;101610.88;5116844;28;20035;-35
2023/12/27 08:42:53;;;;;;;7.93;6.97;;;;;;;5.94;100.00;101589.16;5117220;28;19911;-35
2023/12/27 08:45:18;;;;;;;9.02;7.40;;;;;;;6.10;100.00;101593.56;5116264;28;20521;-35
2023/12/27 08:47:44;;;;;;;8.93;7.60;;;;;;;6.05;100.00;101581.69;5116820;27;20118;-36
2023/12/27 08:50:10;;;;;;;8.18;7.35;;;;;;;6.09;100.00;101585.69;5116174;28;20058;-35
2023/12/27 08:52:36;;;;;;;9.55;7.63;;;;;;;6.21;100.00;101603.03;5116737;28;20024;-35
2023/12/27 08:55:03;;;;;;;10.53;7.73;;;;;;;6.25;100.00;101600.81;5115701;28;20475;-36
2023/12/27 08:57:28;;;;;;;8.60;7.50;;;;;;;6.27;100.00;101588.03;5116354;28;20292;-36
2023/12/27 08:59:54;;;;;;;7.60;6.80;;;;;;;6.31;100.00;101583.94;5116349;28;20106;-36
2023/12/27 09:02:19;;;;;;;9.87;7.30;;;;;;;6.35;100.00;101582.56;5116568;28;20427;-36
2023/12/27 09:04:44;;;;;;;8.30;6.77;;;;;;;6.31;100.00;101567.84;5115938;28;20265;-35
2023/12/27 09:07:10;;;;;;;7.40;6.63;;;;;;;6.42;100.00;101576.25;5115841;28;20070;-36
2023/12/27 09:09:35;;;;;;;11.03;7.60;;;;;;;6.46;100.00;101565.97;5115732;28;20035;-35
2023/12/27 09:12:04;;;;;;;7.50;6.63;;;;;;;6.51;100.00;101573.47;5115785;28;20045;-36
2023/12/27 09:14:29;;;;;;;7.82;5.97;;;;;;;6.54;100.00;101573.94;5115663;28;20479;-35
2023/12/27 09:16:55;;;;;;;7.43;6.60;;;;;;;6.54;100.00;101575.78;5115619;28;20019;-35
2023/12/27 09:19:20;;;;;;;7.03;5.90;;;;;;;6.59;100.00;101576.91;5115956;28;20141;-35
2023/12/27 09:21:46;;;;;;;8.43;6.40;;;;;;;6.68;100.00;101572.25;5115704;28;20479;-35
2023/12/27 09:24:11;;;;;;;10.27;6.25;;;;;;;6.69;100.00;101560.50;5116071;28;20349;-35
2023/12/27 09:26:37;;;;;;;7.90;6.03;;;;;;;6.66;100.00;101547.41;5115802;27;20032;-35
2023/12/27 09:29:02;;;;;;;7.97;5.50;;;;;;;6.75;100.00;101548.16;5115974;28;20455;-35
2023/12/27 09:31:30;;;;;;;8.23;5.25;;;;;;;6.78;100.00;101558.50;5115932;28;20019;-35
2023/12/27 09:34:02;;;;;;;6.18;4.75;;;;;;;6.77;100.00;101554.16;5114993;28;20024;-35
2023/12/27 09:36:28;;;;;;;6.30;5.35;;;;;;;6.79;100.00;101550.28;5116030;28;20031;-36
2023/12/27 09:38:53;;;;;;;6.65;5.03;;;;;;;6.75;100.00;101532.84;5115139;28;20357;-35
2023/12/27 09:41:19;;;;;;;5.25;4.72;;;;;;;6.80;100.00;101541.19;5114218;28;20031;-36
2023/12/27 09:43:45;;;;;;;5.78;4.25;;;;;;;6.82;100.00;101541.81;5115449;27;20038;-35
2023/12/27 09:46:13;;;;;;;5.90;4.72;;;;;;;6.84;100.00;101537.09;5115417;28;20367;-35
2023/12/27 09:48:42;;;;;;;6.25;4.90;;;;;;;6.78;100.00;101527.06;5114791;28;20437;-36
2023/12/27 09:51:11;;;;;;;6.63;5.10;;;;;;;6.87;100.00;101531.31;5115346;28;20035;-36
2023/12/27 09:53:36;;;;;;;6.28;4.47;;;;;;;6.75;100.00;101511.34;5114634;28;20033;-36
2023/12/27 09:56:03;;;;;;;5.15;4.65;;;;;;;6.74;100.00;101504.31;5115529;28;20118;-35
2023/12/27 09:58:28;;;;;;;6.35;4.18;;;;;;;6.93;100.00;101541.34;5115106;28;20112;-35
2023/12/27 10:01:00;;;;;;;5.80;4.20;;;;;;;6.94;100.00;101531.41;5114849;28;20455;-35
2023/12/27 10:03:34;;;;;;;5.68;4.25;;;;;;;6.99;100.00;101536.22;5114981;28;20019;-36
2023/12/27 10:06:16;;;;;;;7.68;4.50;;;;;;;7.03;100.00;101534.78;5115519;28;20036;-36
2023/12/27 10:08:41;;;;;;;4.90;4.38;;;;;;;7.00;100.00;101529.81;5115548;28;20035;-35
2023/12/27 10:11:09;;;;;;;7.25;4.15;;;;;;;7.07;100.00;101538.78;5115011;28;20086;-36
2023/12/27 10:13:41;;;;;;;6.13;4.60;;;;;;;7.10;100.00;101530.34;5114291;27;20030;-36
2023/12/27 10:16:06;;;;;;;6.78;4.10;;;;;;;7.10;100.00;101515.03;5114489;28;20114;-36
2023/12/27 10:18:31;;;;;;;6.75;4.10;;;;;;;7.10;100.00;101512.34;5114220;28;20062;-36
2023/12/27 10:20:58;;;;;;;4.43;3.83;;;;;;;7.09;100.00;101520.59;5114782;28;20414;-36
2023/12/27 10:23:24;;;;;;;5.20;4.18;;;;;;;7.08;100.00;101513.56;5114377;28;20023;-36
2023/12/27 10:25:53;;;;;;;6.93;3.90;;;;;;;7.18;100.00;101522.97;5114427;28;20460;-35
2023/12/27 10:28:25;;;;;;;5.63;3.92;;;;;;;7.19;100.00;101513.03;5114278;28;20078;-36
2023/12/27 10:30:53;;;;;;;3.92;3.53;;;;;;;7.25;100.00;101512.28;5114326;28;20028;-36
2023/12/27 10:33:22;;;;;;;5.97;4.30;;;;;;;7.17;100.00;101483.66;5114277;28;20058;-35
2023/12/27 10:35:47;;;;;;;8.25;4.20;;;;;;;7.31;100.00;101500.72;5114983;28;20432;-35
2023/12/27 10:38:14;;;;;;;4.90;3.92;;;;;;;7.33;100.00;101504.06;5114432;28;20035;-36
2023/12/27 10:40:40;;;;;;;6.70;4.20;;;;;;;7.36;100.00;101494.78;5114486;28;20023;-36
2023/12/27 10:43:06;;;;;;;5.93;3.78;;;;;;;7.38;100.00;101482.81;5114434;28;20043;-36
2023/12/27 10:45:32;;;;;;;4.80;3.72;;;;;;;7.42;100.00;101473.31;5114200;28;20043;-35
2023/12/27 10:47:59;;;;;;;5.45;3.60;;;;;;;7.43;100.00;101458.81;5114017;28;20020;-35
2023/12/27 10:50:27;;;;;;;4.90;3.72;;;;;;;7.41;100.00;101460.03;5114157;28;20119;-35
2023/12/27 10:53:06;;;;;;;4.15;3.53;;;;;;;7.49;100.00;101478.75;5114436;28;20034;-36
2023/12/27 10:55:33;;;;;;;5.00;3.60;;;;;;;7.34;100.00;101451.91;5114246;28;20044;-36
2023/12/27 10:58:01;;;;;;;4.68;2.40;;;;;;;7.52;100.00;101464.91;5114573;28;20032;-36
2023/12/27 11:00:28;;;;;;;7.10;2.60;;;;;;;7.49;100.00;101441.88;5114462;28;20024;-35
2023/12/27 11:02:53;;;;;;;3.75;2.00;;;;;;;7.61;100.00;101452.09;5114253;28;20096;-36
2023/12/27 11:05:22;;;;;;;4.07;2.08;;;;;;;7.65;100.00;101442.63;5114675;28;20059;-35
2023/12/27 11:07:49;;;;;;;4.47;1.92;;;;;;;7.67;100.00;101433.31;5113631;28;20517;-35
2023/12/27 11:10:16;;;;;;;4.60;2.15;;;;;;;7.72;100.00;101438.13;5114100;28;20421;-36
2023/12/27 11:12:46;;;;;;;5.00;1.90;;;;;;;7.75;100.00;101429.63;5113776;28;20024;-36
2023/12/27 11:15:14;;;;;;;3.22;1.88;;;;;;;7.81;100.00;101436.94;5114108;28;20118;-36